sensor_id;sensor_type;location;lat;lon;timestamp;pressure;altitude;pressure_sealevel;temperature
49785;BMP280;35679;38.732;-121.358;2023-07-29T00:01:05;100810.66;;;28.62
49785;BMP280;35679;38.732;-121.358;2023-07-29T00:03:55;100806.31;;;28.66
49785;BMP280;35679;38.732;-121.358;2023-07-29T00:06:45;100809.53;;;28.68
49785;BMP280;35679;38.732;-121.358;2023-07-29T00:09:34;100805.97;;;28.73
49785;BMP280;35679;38.732;-121.358;2023-07-29T00:12:24;100805.69;;;28.74
49785;BMP280;35679;38.732;-121.358;2023-07-29T00:15:15;100804.06;;;28.78
49785;BMP280;35679;38.732;-121.358;2023-07-29T00:18:06;100791.81;;;28.81
49785;BMP280;35679;38.732;-121.358;2023-07-29T00:20:57;100799.69;;;28.82
49785;BMP280;35679;38.732;-121.358;2023-07-29T00:23:47;100798.31;;;28.85
49785;BMP280;35679;38.732;-121.358;2023-07-29T00:26:37;100790.19;;;28.85
49785;BMP280;35679;38.732;-121.358;2023-07-29T00:29:26;100798.00;;;28.91
49785;BMP280;35679;38.732;-121.358;2023-07-29T00:32:15;100787.91;;;28.92
49785;BMP280;35679;38.732;-121.358;2023-07-29T00:35:06;100792.81;;;28.95
49785;BMP280;35679;38.732;-121.358;2023-07-29T00:37:57;100790.59;;;28.97
49785;BMP280;35679;38.732;-121.358;2023-07-29T00:40:47;100787.88;;;28.97
49785;BMP280;35679;38.732;-121.358;2023-07-29T00:43:36;100783.50;;;29.01
49785;BMP280;35679;38.732;-121.358;2023-07-29T00:46:27;100783.22;;;29.02
49785;BMP280;35679;38.732;-121.358;2023-07-29T00:49:17;100780.22;;;29.04
49785;BMP280;35679;38.732;-121.358;2023-07-29T00:52:07;100781.00;;;29.04
49785;BMP280;35679;38.732;-121.358;2023-07-29T00:54:56;100785.06;;;29.07
49785;BMP280;35679;38.732;-121.358;2023-07-29T00:57:46;100776.66;;;29.08
49785;BMP280;35679;38.732;-121.358;2023-07-29T01:00:37;100776.34;;;29.10
49785;BMP280;35679;38.732;-121.358;2023-07-29T01:03:27;100771.47;;;29.12
49785;BMP280;35679;38.732;-121.358;2023-07-29T01:12:50;100760.25;;;29.18
49785;BMP280;35679;38.732;-121.358;2023-07-29T01:15:46;100763.19;;;29.21
49785;BMP280;35679;38.732;-121.358;2023-07-29T01:18:39;100762.06;;;29.22
49785;BMP280;35679;38.732;-121.358;2023-07-29T01:21:30;100763.69;;;29.23
49785;BMP280;35679;38.732;-121.358;2023-07-29T01:24:20;100758.25;;;29.23
49785;BMP280;35679;38.732;-121.358;2023-07-29T01:27:10;100767.75;;;29.26
49785;BMP280;35679;38.732;-121.358;2023-07-29T01:30:01;100760.44;;;29.26
49785;BMP280;35679;38.732;-121.358;2023-07-29T01:33:08;100768.00;;;29.29
49785;BMP280;35679;38.732;-121.358;2023-07-29T01:36:07;100771.50;;;29.30
49785;BMP280;35679;38.732;-121.358;2023-07-29T01:39:02;100766.06;;;29.30
49785;BMP280;35679;38.732;-121.358;2023-07-29T01:41:52;100776.69;;;29.31
49785;BMP280;35679;38.732;-121.358;2023-07-29T01:44:42;100784.56;;;29.33
49785;BMP280;35679;38.732;-121.358;2023-07-29T01:47:32;100781.03;;;29.32
49785;BMP280;35679;38.732;-121.358;2023-07-29T01:50:22;100778.31;;;29.32
49785;BMP280;35679;38.732;-121.358;2023-07-29T01:53:11;100783.97;;;29.36
49785;BMP280;35679;38.732;-121.358;2023-07-29T01:56:02;100783.97;;;29.36
49785;BMP280;35679;38.732;-121.358;2023-07-29T01:58:54;100788.31;;;29.37
49785;BMP280;35679;38.732;-121.358;2023-07-29T02:01:44;100789.94;;;29.38
49785;BMP280;35679;38.732;-121.358;2023-07-29T02:04:35;100793.47;;;29.38
49785;BMP280;35679;38.732;-121.358;2023-07-29T02:07:26;100789.66;;;29.39
49785;BMP280;35679;38.732;-121.358;2023-07-29T02:10:15;100797.81;;;29.39
49785;BMP280;35679;38.732;-121.358;2023-07-29T02:13:05;100800.53;;;29.39
49785;BMP280;35679;38.732;-121.358;2023-07-29T02:15:54;100798.66;;;29.40
49785;BMP280;35679;38.732;-121.358;2023-07-29T02:18:44;100801.38;;;29.40
49785;BMP280;35679;38.732;-121.358;2023-07-29T02:21:34;100802.44;;;29.39
49785;BMP280;35679;38.732;-121.358;2023-07-29T02:24:25;100803.78;;;29.41
49785;BMP280;35679;38.732;-121.358;2023-07-29T02:27:15;100813.84;;;29.41
49785;BMP280;35679;38.732;-121.358;2023-07-29T02:30:05;100813.84;;;29.41
49785;BMP280;35679;38.732;-121.358;2023-07-29T02:32:55;100816.56;;;29.41
49785;BMP280;35679;38.732;-121.358;2023-07-29T02:35:45;100817.38;;;29.41
49785;BMP280;35679;38.732;-121.358;2023-07-29T02:38:34;100818.19;;;29.42
49785;BMP280;35679;38.732;-121.358;2023-07-29T02:41:25;100830.69;;;29.43
49785;BMP280;35679;38.732;-121.358;2023-07-29T02:44:15;100826.34;;;29.42
49785;BMP280;35679;38.732;-121.358;2023-07-29T02:47:05;100834.50;;;29.42
49785;BMP280;35679;38.732;-121.358;2023-07-29T02:49:55;100832.59;;;29.42
49785;BMP280;35679;38.732;-121.358;2023-07-29T02:52:45;100823.91;;;29.40
49785;BMP280;35679;38.732;-121.358;2023-07-29T02:55:41;100835.88;;;29.39
49785;BMP280;35679;38.732;-121.358;2023-07-29T02:58:31;100830.44;;;29.39
49785;BMP280;35679;38.732;-121.358;2023-07-29T03:01:22;100828.31;;;29.36
49785;BMP280;35679;38.732;-121.358;2023-07-29T03:04:14;100842.41;;;29.38
49785;BMP280;35679;38.732;-121.358;2023-07-29T03:07:04;100836.47;;;29.36
49785;BMP280;35679;38.732;-121.358;2023-07-29T03:09:53;100846.81;;;29.34
49785;BMP280;35679;38.732;-121.358;2023-07-29T03:12:42;100842.47;;;29.33
49785;BMP280;35679;38.732;-121.358;2023-07-29T03:15:32;100835.41;;;29.32
49785;BMP280;35679;38.732;-121.358;2023-07-29T03:18:22;100841.38;;;29.29
49785;BMP280;35679;38.732;-121.358;2023-07-29T03:21:12;100839.19;;;29.31
49785;BMP280;35679;38.732;-121.358;2023-07-29T03:24:01;100834.84;;;29.35
49785;BMP280;35679;38.732;-121.358;2023-07-29T03:26:51;100842.94;;;29.40
49785;BMP280;35679;38.732;-121.358;2023-07-29T03:29:40;100845.72;;;29.35
49785;BMP280;35679;38.732;-121.358;2023-07-29T03:32:30;100852.72;;;29.41
49785;BMP280;35679;38.732;-121.358;2023-07-29T03:35:20;100846.59;;;29.54
49785;BMP280;35679;38.732;-121.358;2023-07-29T03:38:10;100849.31;;;29.54
49785;BMP280;35679;38.732;-121.358;2023-07-29T03:41:00;100853.09;;;29.58
49785;BMP280;35679;38.732;-121.358;2023-07-29T03:43:51;100854.44;;;29.61
49785;BMP280;35679;38.732;-121.358;2023-07-29T03:46:41;100845.69;;;29.64
49785;BMP280;35679;38.732;-121.358;2023-07-29T03:49:32;100851.13;;;29.64
49785;BMP280;35679;38.732;-121.358;2023-07-29T03:52:22;100855.47;;;29.65
49785;BMP280;35679;38.732;-121.358;2023-07-29T03:55:12;100850.88;;;29.60
49785;BMP280;35679;38.732;-121.358;2023-07-29T03:58:01;100855.81;;;29.58
49785;BMP280;35679;38.732;-121.358;2023-07-29T04:00:51;100859.09;;;29.55
49785;BMP280;35679;38.732;-121.358;2023-07-29T04:03:40;100861.28;;;29.53
49785;BMP280;35679;38.732;-121.358;2023-07-29T04:06:30;100859.69;;;29.52
49785;BMP280;35679;38.732;-121.358;2023-07-29T04:09:19;100869.72;;;29.52
49785;BMP280;35679;38.732;-121.358;2023-07-29T04:12:09;100875.47;;;29.50
49785;BMP280;35679;38.732;-121.358;2023-07-29T04:14:59;100872.16;;;29.53
49785;BMP280;35679;38.732;-121.358;2023-07-29T04:17:49;100876.81;;;29.53
49785;BMP280;35679;38.732;-121.358;2023-07-29T04:20:38;100879.81;;;29.51
49785;BMP280;35679;38.732;-121.358;2023-07-29T04:23:28;100885.00;;;29.48
49785;BMP280;35679;38.732;-121.358;2023-07-29T04:26:18;100885.59;;;29.45
49785;BMP280;35679;38.732;-121.358;2023-07-29T04:29:07;100892.69;;;29.41
49785;BMP280;35679;38.732;-121.358;2023-07-29T04:31:57;100895.41;;;29.41
49785;BMP280;35679;38.732;-121.358;2023-07-29T04:34:46;100903.56;;;29.41
49785;BMP280;35679;38.732;-121.358;2023-07-29T04:37:36;100901.38;;;29.43
49785;BMP280;35679;38.732;-121.358;2023-07-29T04:40:25;100903.56;;;29.41
49785;BMP280;35679;38.732;-121.358;2023-07-29T04:43:14;100907.94;;;29.37
49785;BMP280;35679;38.732;-121.358;2023-07-29T04:46:07;100896.28;;;29.31
49785;BMP280;35679;38.732;-121.358;2023-07-29T04:48:57;100907.22;;;29.26
49785;BMP280;35679;38.732;-121.358;2023-07-29T04:51:47;100908.59;;;29.24
49785;BMP280;35679;38.732;-121.358;2023-07-29T04:54:36;100907.25;;;29.21
49785;BMP280;35679;38.732;-121.358;2023-07-29T04:57:26;100909.97;;;29.21
49785;BMP280;35679;38.732;-121.358;2023-07-29T05:00:16;100914.06;;;29.19
49785;BMP280;35679;38.732;-121.358;2023-07-29T05:03:06;100913.22;;;29.18
49785;BMP280;35679;38.732;-121.358;2023-07-29T05:05:56;100914.31;;;29.17
49785;BMP280;35679;38.732;-121.358;2023-07-29T05:08:47;100912.97;;;29.15
49785;BMP280;35679;38.732;-121.358;2023-07-29T05:11:39;100919.81;;;29.13
49785;BMP280;35679;38.732;-121.358;2023-07-29T05:14:28;100912.75;;;29.12
49785;BMP280;35679;38.732;-121.358;2023-07-29T05:17:18;100924.19;;;29.09
49785;BMP280;35679;38.732;-121.358;2023-07-29T05:20:08;100921.75;;;29.07
49785;BMP280;35679;38.732;-121.358;2023-07-29T05:22:58;100927.47;;;29.06
49785;BMP280;35679;38.732;-121.358;2023-07-29T05:25:47;100935.38;;;29.02
49785;BMP280;35679;38.732;-121.358;2023-07-29T05:28:37;100926.69;;;29.00
49785;BMP280;35679;38.732;-121.358;2023-07-29T05:31:27;100930.50;;;28.99
49785;BMP280;35679;38.732;-121.358;2023-07-29T05:34:16;100933.78;;;28.96
49785;BMP280;35679;38.732;-121.358;2023-07-29T05:37:06;100928.63;;;28.95
49785;BMP280;35679;38.732;-121.358;2023-07-29T05:39:55;100932.19;;;28.90
49785;BMP280;35679;38.732;-121.358;2023-07-29T05:42:45;100937.34;;;28.92
49785;BMP280;35679;38.732;-121.358;2023-07-29T05:45:34;100935.19;;;28.89
49785;BMP280;35679;38.732;-121.358;2023-07-29T05:48:24;100933.84;;;28.86
49785;BMP280;35679;38.732;-121.358;2023-07-29T05:51:14;100924.91;;;28.81
49785;BMP280;35679;38.732;-121.358;2023-07-29T05:54:03;100932.25;;;28.80
49785;BMP280;35679;38.732;-121.358;2023-07-29T05:56:53;100941.50;;;28.79
49785;BMP280;35679;38.732;-121.358;2023-07-29T05:59:42;100939.63;;;28.75
49785;BMP280;35679;38.732;-121.358;2023-07-29T06:02:33;100941.50;;;28.74
49785;BMP280;35679;38.732;-121.358;2023-07-29T06:05:22;100940.97;;;28.72
49785;BMP280;35679;38.732;-121.358;2023-07-29T06:08:12;100947.78;;;28.70
49785;BMP280;35679;38.732;-121.358;2023-07-29T06:11:01;100943.44;;;28.69
49785;BMP280;35679;38.732;-121.358;2023-07-29T06:13:51;100939.09;;;28.68
49785;BMP280;35679;38.732;-121.358;2023-07-29T06:16:40;100938.84;;;28.64
49785;BMP280;35679;38.732;-121.358;2023-07-29T06:19:30;100941.28;;;28.61
49785;BMP280;35679;38.732;-121.358;2023-07-29T06:22:19;100938.06;;;28.59
49785;BMP280;35679;38.732;-121.358;2023-07-29T06:25:09;100941.03;;;28.57
49785;BMP280;35679;38.732;-121.358;2023-07-29T06:27:58;100944.06;;;28.51
49785;BMP280;35679;38.732;-121.358;2023-07-29T06:30:48;100941.34;;;28.51
49785;BMP280;35679;38.732;-121.358;2023-07-29T06:33:37;100935.63;;;28.52
49785;BMP280;35679;38.732;-121.358;2023-07-29T06:36:27;100935.91;;;28.51
49785;BMP280;35679;38.732;-121.358;2023-07-29T06:39:16;100938.38;;;28.48
49785;BMP280;35679;38.732;-121.358;2023-07-29T06:42:06;100935.13;;;28.46
49785;BMP280;35679;38.732;-121.358;2023-07-29T06:44:55;100938.69;;;28.41
49785;BMP280;35679;38.732;-121.358;2023-07-29T06:47:45;100937.63;;;28.37
49785;BMP280;35679;38.732;-121.358;2023-07-29T06:50:34;100928.13;;;28.35
49785;BMP280;35679;38.732;-121.358;2023-07-29T06:53:24;100930.59;;;28.31
49785;BMP280;35679;38.732;-121.358;2023-07-29T06:56:14;100932.50;;;28.31
49785;BMP280;35679;38.732;-121.358;2023-07-29T06:59:04;100932.75;;;28.29
49785;BMP280;35679;38.732;-121.358;2023-07-29T07:01:53;100933.03;;;28.28
49785;BMP280;35679;38.732;-121.358;2023-07-29T07:04:42;100938.75;;;28.26
49785;BMP280;35679;38.732;-121.358;2023-07-29T07:07:33;100924.09;;;28.22
49785;BMP280;35679;38.732;-121.358;2023-07-29T07:10:22;100931.41;;;28.22
49785;BMP280;35679;38.732;-121.358;2023-07-29T07:13:11;100931.97;;;28.24
49785;BMP280;35679;38.732;-121.358;2023-07-29T07:16:01;100935.25;;;28.21
49785;BMP280;35679;38.732;-121.358;2023-07-29T07:18:51;100937.13;;;28.20
49785;BMP280;35679;38.732;-121.358;2023-07-29T07:21:40;100932.28;;;28.17
49785;BMP280;35679;38.732;-121.358;2023-07-29T07:24:30;100938.19;;;28.14
49785;BMP280;35679;38.732;-121.358;2023-07-29T07:27:19;100936.06;;;28.11
49785;BMP280;35679;38.732;-121.358;2023-07-29T07:30:09;100950.97;;;28.09
49785;BMP280;35679;38.732;-121.358;2023-07-29T07:32:58;100957.50;;;28.08
49785;BMP280;35679;38.732;-121.358;2023-07-29T07:35:50;100958.59;;;28.02
49785;BMP280;35679;38.732;-121.358;2023-07-29T07:38:40;100962.16;;;27.97
49785;BMP280;35679;38.732;-121.358;2023-07-29T07:41:29;100958.59;;;27.92
49785;BMP280;35679;38.732;-121.358;2023-07-29T07:44:18;100954.81;;;27.93
49785;BMP280;35679;38.732;-121.358;2023-07-29T07:47:08;100966.47;;;27.88
49785;BMP280;35679;38.732;-121.358;2023-07-29T07:49:58;100961.06;;;27.88
49785;BMP280;35679;38.732;-121.358;2023-07-29T07:52:47;100962.69;;;27.84
49785;BMP280;35679;38.732;-121.358;2023-07-29T07:55:37;100960.25;;;27.83
49785;BMP280;35679;38.732;-121.358;2023-07-29T07:58:26;100967.31;;;27.79
49785;BMP280;35679;38.732;-121.358;2023-07-29T08:01:16;100960.28;;;27.78
49785;BMP280;35679;38.732;-121.358;2023-07-29T08:04:05;100963.50;;;27.75
49785;BMP280;35679;38.732;-121.358;2023-07-29T08:06:55;100958.66;;;27.72
49785;BMP280;35679;38.732;-121.358;2023-07-29T08:09:44;100961.34;;;27.72
49785;BMP280;35679;38.732;-121.358;2023-07-29T08:12:34;100957.81;;;27.67
49785;BMP280;35679;38.732;-121.358;2023-07-29T08:15:23;100964.88;;;27.68
49785;BMP280;35679;38.732;-121.358;2023-07-29T08:18:12;100950.81;;;27.66
49785;BMP280;35679;38.732;-121.358;2023-07-29T08:21:02;100955.66;;;27.64
49785;BMP280;35679;38.732;-121.358;2023-07-29T08:23:51;100949.69;;;27.62
49785;BMP280;35679;38.732;-121.358;2023-07-29T08:26:41;100957.81;;;27.57
49785;BMP280;35679;38.732;-121.358;2023-07-29T08:29:30;100951.31;;;27.53
49785;BMP280;35679;38.732;-121.358;2023-07-29T08:32:20;100954.00;;;27.53
49785;BMP280;35679;38.732;-121.358;2023-07-29T08:35:09;100961.63;;;27.51
49785;BMP280;35679;38.732;-121.358;2023-07-29T08:37:59;100960.25;;;27.48
49785;BMP280;35679;38.732;-121.358;2023-07-29T08:41:10;100960.50;;;27.47
49785;BMP280;35679;38.732;-121.358;2023-07-29T08:44:20;100971.34;;;27.47
49785;BMP280;35679;38.732;-121.358;2023-07-29T08:47:11;100965.41;;;27.40
49785;BMP280;35679;38.732;-121.358;2023-07-29T08:50:03;100964.31;;;27.41
49785;BMP280;35679;38.732;-121.358;2023-07-29T08:52:53;100973.53;;;27.35
49785;BMP280;35679;38.732;-121.358;2023-07-29T08:55:42;100978.41;;;27.33
49785;BMP280;35679;38.732;-121.358;2023-07-29T08:58:32;100971.63;;;27.35
49785;BMP280;35679;38.732;-121.358;2023-07-29T09:01:22;100976.50;;;27.28
49785;BMP280;35679;38.732;-121.358;2023-07-29T09:04:12;100975.69;;;27.28
49785;BMP280;35679;38.732;-121.358;2023-07-29T09:07:02;100978.41;;;27.28
49785;BMP280;35679;38.732;-121.358;2023-07-29T09:09:51;100977.84;;;27.26
49785;BMP280;35679;38.732;-121.358;2023-07-29T09:12:43;100985.44;;;27.24
49785;BMP280;35679;38.732;-121.358;2023-07-29T09:15:35;100975.13;;;27.21
49785;BMP280;35679;38.732;-121.358;2023-07-29T09:18:26;100977.31;;;27.19
49785;BMP280;35679;38.732;-121.358;2023-07-29T09:21:20;100972.97;;;27.18
49785;BMP280;35679;38.732;-121.358;2023-07-29T09:24:16;100977.31;;;27.14
49785;BMP280;35679;38.732;-121.358;2023-07-29T09:27:08;100979.47;;;27.12
49785;BMP280;35679;38.732;-121.358;2023-07-29T09:29:58;100973.78;;;27.09
49785;BMP280;35679;38.732;-121.358;2023-07-29T09:32:56;100977.03;;;27.06
49785;BMP280;35679;38.732;-121.358;2023-07-29T09:35:46;100974.84;;;27.08
49785;BMP280;35679;38.732;-121.358;2023-07-29T09:38:36;100975.13;;;27.06
49785;BMP280;35679;38.732;-121.358;2023-07-29T09:41:27;100975.91;;;27.02
49785;BMP280;35679;38.732;-121.358;2023-07-29T09:44:17;100975.38;;;27.00
49785;BMP280;35679;38.732;-121.358;2023-07-29T09:47:07;100977.53;;;26.98
49785;BMP280;35679;38.732;-121.358;2023-07-29T09:49:56;100974.03;;;26.97
49785;BMP280;35679;38.732;-121.358;2023-07-29T09:52:46;100973.44;;;26.95
49785;BMP280;35679;38.732;-121.358;2023-07-29T09:55:37;100966.66;;;26.93
49785;BMP280;35679;38.732;-121.358;2023-07-29T09:58:27;100973.72;;;26.94
49785;BMP280;35679;38.732;-121.358;2023-07-29T10:01:17;100965.84;;;26.92
49785;BMP280;35679;38.732;-121.358;2023-07-29T10:04:08;100968.28;;;26.89
49785;BMP280;35679;38.732;-121.358;2023-07-29T10:07:01;100969.63;;;26.86
49785;BMP280;35679;38.732;-121.358;2023-07-29T10:09:52;100971.53;;;26.86
49785;BMP280;35679;38.732;-121.358;2023-07-29T10:12:42;100977.47;;;26.83
49785;BMP280;35679;38.732;-121.358;2023-07-29T10:15:32;100965.00;;;26.82
49785;BMP280;35679;38.732;-121.358;2023-07-29T10:18:23;100962.56;;;26.80
49785;BMP280;35679;38.732;-121.358;2023-07-29T10:21:13;100959.56;;;26.77
49785;BMP280;35679;38.732;-121.358;2023-07-29T10:24:06;100967.16;;;26.75
49785;BMP280;35679;38.732;-121.358;2023-07-29T10:27:00;100962.28;;;26.72
49785;BMP280;35679;38.732;-121.358;2023-07-29T10:29:50;100963.63;;;26.69
49785;BMP280;35679;38.732;-121.358;2023-07-29T10:32:43;100966.59;;;26.68
49785;BMP280;35679;38.732;-121.358;2023-07-29T10:35:34;100976.88;;;26.66
49785;BMP280;35679;38.732;-121.358;2023-07-29T10:38:25;100967.38;;;26.63
49785;BMP280;35679;38.732;-121.358;2023-07-29T10:41:14;100969.00;;;26.59
49785;BMP280;35679;38.732;-121.358;2023-07-29T10:44:03;100969.84;;;26.60
49785;BMP280;35679;38.732;-121.358;2023-07-29T10:46:53;100964.94;;;26.57
49785;BMP280;35679;38.732;-121.358;2023-07-29T10:49:47;100963.56;;;26.54
49785;BMP280;35679;38.732;-121.358;2023-07-29T10:58:22;100962.75;;;26.49
49785;BMP280;35679;38.732;-121.358;2023-07-29T11:01:32;100958.72;;;26.10
49785;BMP280;35679;38.732;-121.358;2023-07-29T11:10:05;100970.81;;;24.83
49785;BMP280;35679;38.732;-121.358;2023-07-29T11:12:55;100981.41;;;24.63
49785;BMP280;35679;38.732;-121.358;2023-07-29T11:15:46;100976.88;;;24.47
49785;BMP280;35679;38.732;-121.358;2023-07-29T11:18:36;100982.91;;;24.54
49785;BMP280;35679;38.732;-121.358;2023-07-29T11:21:25;100980.41;;;25.48
49785;BMP280;35679;38.732;-121.358;2023-07-29T11:24:18;100984.63;;;25.34
49785;BMP280;35679;38.732;-121.358;2023-07-29T11:27:11;100984.88;;;25.32
49785;BMP280;35679;38.732;-121.358;2023-07-29T11:30:03;100987.72;;;25.21
49785;BMP280;35679;38.732;-121.358;2023-07-29T11:32:54;100987.66;;;24.90
49785;BMP280;35679;38.732;-121.358;2023-07-29T11:35:44;101004.03;;;23.86
49785;BMP280;35679;38.732;-121.358;2023-07-29T11:38:33;101015.28;;;23.51
49785;BMP280;35679;38.732;-121.358;2023-07-29T11:41:26;101016.94;;;23.24
49785;BMP280;35679;38.732;-121.358;2023-07-29T11:44:19;101014.56;;;23.00
49785;BMP280;35679;38.732;-121.358;2023-07-29T11:47:09;101017.44;;;22.82
49785;BMP280;35679;38.732;-121.358;2023-07-29T11:49:59;101013.63;;;22.66
49785;BMP280;35679;38.732;-121.358;2023-07-29T11:52:51;101015.75;;;22.53
49785;BMP280;35679;38.732;-121.358;2023-07-29T11:55:41;101012.66;;;22.33
49785;BMP280;35679;38.732;-121.358;2023-07-29T11:58:31;101016.38;;;22.21
49785;BMP280;35679;38.732;-121.358;2023-07-29T12:01:22;101020.47;;;22.00
49785;BMP280;35679;38.732;-121.358;2023-07-29T12:04:12;101018.34;;;21.91
49785;BMP280;35679;38.732;-121.358;2023-07-29T12:07:03;101018.00;;;21.87
49785;BMP280;35679;38.732;-121.358;2023-07-29T12:09:52;101024.53;;;22.03
49785;BMP280;35679;38.732;-121.358;2023-07-29T12:12:49;101016.63;;;22.81
49785;BMP280;35679;38.732;-121.358;2023-07-29T12:15:39;101012.19;;;23.14
49785;BMP280;35679;38.732;-121.358;2023-07-29T12:18:33;101019.88;;;23.22
49785;BMP280;35679;38.732;-121.358;2023-07-29T12:21:22;101016.72;;;23.42
49785;BMP280;35679;38.732;-121.358;2023-07-29T12:24:15;101026.28;;;23.49
49785;BMP280;35679;38.732;-121.358;2023-07-29T12:27:04;101027.03;;;23.45
49785;BMP280;35679;38.732;-121.358;2023-07-29T12:29:54;101035.66;;;23.47
49785;BMP280;35679;38.732;-121.358;2023-07-29T12:32:47;101036.16;;;23.44
49785;BMP280;35679;38.732;-121.358;2023-07-29T12:35:37;101041.88;;;23.47
49785;BMP280;35679;38.732;-121.358;2023-07-29T12:38:28;101038.31;;;23.58
49785;BMP280;35679;38.732;-121.358;2023-07-29T12:41:18;101037.63;;;23.51
49785;BMP280;35679;38.732;-121.358;2023-07-29T12:44:07;101036.81;;;23.51
49785;BMP280;35679;38.732;-121.358;2023-07-29T12:46:56;101044.66;;;23.52
49785;BMP280;35679;38.732;-121.358;2023-07-29T12:49:46;101050.38;;;23.56
49785;BMP280;35679;38.732;-121.358;2023-07-29T12:52:35;101044.69;;;22.85
49785;BMP280;35679;38.732;-121.358;2023-07-29T12:55:25;101052.97;;;22.22
49785;BMP280;35679;38.732;-121.358;2023-07-29T12:58:14;101058.19;;;21.94
49785;BMP280;35679;38.732;-121.358;2023-07-29T13:01:04;101062.38;;;21.78
49785;BMP280;35679;38.732;-121.358;2023-07-29T13:03:54;101064.00;;;21.68
49785;BMP280;35679;38.732;-121.358;2023-07-29T13:06:43;101071.44;;;22.41
49785;BMP280;35679;38.732;-121.358;2023-07-29T13:09:33;101064.22;;;22.92
49785;BMP280;35679;38.732;-121.358;2023-07-29T13:12:22;101060.56;;;22.98
49785;BMP280;35679;38.732;-121.358;2023-07-29T13:15:12;101066.53;;;23.00
49785;BMP280;35679;38.732;-121.358;2023-07-29T13:18:01;101063.72;;;22.95
49785;BMP280;35679;38.732;-121.358;2023-07-29T13:20:51;101070.06;;;22.89
49785;BMP280;35679;38.732;-121.358;2023-07-29T13:23:40;101076.50;;;22.88
49785;BMP280;35679;38.732;-121.358;2023-07-29T13:26:29;101074.91;;;22.76
49785;BMP280;35679;38.732;-121.358;2023-07-29T13:29:19;101078.41;;;22.76
49785;BMP280;35679;38.732;-121.358;2023-07-29T13:32:09;101089.06;;;22.71
49785;BMP280;35679;38.732;-121.358;2023-07-29T13:34:58;101088.72;;;22.68
49785;BMP280;35679;38.732;-121.358;2023-07-29T13:37:48;101094.78;;;22.63
49785;BMP280;35679;38.732;-121.358;2023-07-29T13:40:37;101091.66;;;22.55
49785;BMP280;35679;38.732;-121.358;2023-07-29T13:43:26;101097.91;;;21.92
49785;BMP280;35679;38.732;-121.358;2023-07-29T13:46:16;101094.31;;;21.57
49785;BMP280;35679;38.732;-121.358;2023-07-29T13:49:05;101098.78;;;21.45
49785;BMP280;35679;38.732;-121.358;2023-07-29T13:51:55;101101.84;;;21.19
49785;BMP280;35679;38.732;-121.358;2023-07-29T13:54:44;101107.25;;;21.02
49785;BMP280;35679;38.732;-121.358;2023-07-29T13:57:34;101109.50;;;20.87
49785;BMP280;35679;38.732;-121.358;2023-07-29T14:00:24;101106.88;;;20.80
49785;BMP280;35679;38.732;-121.358;2023-07-29T14:03:14;101109.41;;;20.75
49785;BMP280;35679;38.732;-121.358;2023-07-29T14:06:03;101119.38;;;20.68
49785;BMP280;35679;38.732;-121.358;2023-07-29T14:08:53;101125.38;;;20.64
49785;BMP280;35679;38.732;-121.358;2023-07-29T14:11:42;101120.47;;;20.61
49785;BMP280;35679;38.732;-121.358;2023-07-29T14:14:32;101125.22;;;20.59
49785;BMP280;35679;38.732;-121.358;2023-07-29T14:17:21;101113.69;;;20.58
49785;BMP280;35679;38.732;-121.358;2023-07-29T14:20:11;101115.53;;;20.58
49785;BMP280;35679;38.732;-121.358;2023-07-29T14:23:00;101109.16;;;20.59
49785;BMP280;35679;38.732;-121.358;2023-07-29T14:25:50;101114.97;;;20.56
49785;BMP280;35679;38.732;-121.358;2023-07-29T14:28:39;101119.25;;;20.57
49785;BMP280;35679;38.732;-121.358;2023-07-29T14:31:29;101129.56;;;20.60
49785;BMP280;35679;38.732;-121.358;2023-07-29T14:34:18;101128.53;;;20.61
49785;BMP280;35679;38.732;-121.358;2023-07-29T14:37:08;101137.16;;;20.63
49785;BMP280;35679;38.732;-121.358;2023-07-29T14:40:01;101144.75;;;20.66
49785;BMP280;35679;38.732;-121.358;2023-07-29T14:42:50;101139.97;;;20.68
49785;BMP280;35679;38.732;-121.358;2023-07-29T14:45:40;101147.38;;;20.72
49785;BMP280;35679;38.732;-121.358;2023-07-29T14:48:29;101149.03;;;20.73
49785;BMP280;35679;38.732;-121.358;2023-07-29T14:51:19;101161.94;;;20.83
49785;BMP280;35679;38.732;-121.358;2023-07-29T14:54:08;101167.38;;;20.76
49785;BMP280;35679;38.732;-121.358;2023-07-29T14:56:57;101164.84;;;20.81
49785;BMP280;35679;38.732;-121.358;2023-07-29T14:59:47;101160.00;;;20.90
49785;BMP280;35679;38.732;-121.358;2023-07-29T15:02:36;101160.47;;;20.87
49785;BMP280;35679;38.732;-121.358;2023-07-29T15:05:26;101167.91;;;20.85
49785;BMP280;35679;38.732;-121.358;2023-07-29T15:08:15;101167.91;;;21.03
49785;BMP280;35679;38.732;-121.358;2023-07-29T15:11:05;101178.84;;;21.01
49785;BMP280;35679;38.732;-121.358;2023-07-29T15:13:54;101175.34;;;21.01
49785;BMP280;35679;38.732;-121.358;2023-07-29T15:16:44;101169.75;;;21.02
49785;BMP280;35679;38.732;-121.358;2023-07-29T15:19:33;101177.16;;;21.07
49785;BMP280;35679;38.732;-121.358;2023-07-29T15:22:23;101174.31;;;21.19
49785;BMP280;35679;38.732;-121.358;2023-07-29T15:25:12;101174.06;;;21.21
49785;BMP280;35679;38.732;-121.358;2023-07-29T15:28:02;101168.41;;;21.29
49785;BMP280;35679;38.732;-121.358;2023-07-29T15:30:52;101169.41;;;21.64
49785;BMP280;35679;38.732;-121.358;2023-07-29T15:33:42;101165.59;;;21.71
49785;BMP280;35679;38.732;-121.358;2023-07-29T15:36:32;101171.41;;;21.57
49785;BMP280;35679;38.732;-121.358;2023-07-29T15:39:22;101178.88;;;21.66
49785;BMP280;35679;38.732;-121.358;2023-07-29T15:42:11;101168.63;;;22.15
49785;BMP280;35679;38.732;-121.358;2023-07-29T15:45:01;101167.28;;;22.24